createdAt,value
2022-08-22T00:00:11.911Z,2.97
2022-08-22T00:02:45.888Z,1.57
2022-08-22T00:02:56.459Z,1.27
2022-08-22T00:03:01.249Z,2.23
2022-08-22T00:03:10.469Z,1.60
2022-08-22T00:03:11.930Z,2.50
2022-08-22T00:03:17.676Z,2.70
2022-08-22T00:05:56.030Z,2.23
2022-08-22T00:08:29.189Z,2.30
2022-08-22T00:11:02.635Z,2.00
2022-08-22T00:13:37.115Z,3.20
2022-08-22T00:16:10.314Z,2.33
2022-08-22T00:18:45.279Z,2.60
2022-08-22T00:21:19.875Z,2.27
2022-08-22T00:23:50.907Z,2.80
2022-08-22T00:26:33.864Z,2.17
2022-08-22T00:29:05.270Z,2.93
2022-08-22T00:31:38.150Z,2.20
2022-08-22T00:34:11.145Z,2.47
2022-08-22T00:36:43.908Z,1.97
2022-08-22T00:39:20.141Z,2.67
2022-08-22T00:42:16.006Z,2.43
2022-08-22T00:45:18.174Z,3.10
2022-08-22T00:47:57.549Z,1.90
2022-08-22T00:50:41.328Z,2.73
2022-08-22T00:53:31.616Z,2.40
2022-08-22T00:56:21.674Z,2.03
2022-08-22T00:59:18.120Z,3.10
2022-08-22T01:01:58.704Z,1.97
2022-08-22T01:04:46.937Z,3.37
2022-08-22T01:07:38.205Z,3.33
2022-08-22T01:10:24.850Z,2.57
2022-08-22T01:13:07.179Z,2.57
2022-08-22T01:15:37.481Z,1.87
2022-08-22T01:18:28.196Z,2.00
2022-08-22T01:21:45.992Z,1.73
2022-08-22T01:25:22.580Z,2.27
2022-08-22T01:28:41.190Z,3.20
2022-08-22T01:31:58.481Z,2.67
2022-08-22T01:35:01.173Z,2.40
2022-08-22T01:37:45.067Z,2.20
2022-08-22T01:40:54.087Z,2.77
2022-08-22T01:43:58.563Z,2.77
2022-08-22T01:46:36.134Z,2.47
2022-08-22T01:49:12.970Z,2.83
2022-08-22T01:51:51.152Z,2.37
2022-08-22T01:54:36.102Z,1.90
2022-08-22T01:57:08.793Z,2.50
2022-08-22T01:59:42.334Z,2.70
2022-08-22T02:02:37.458Z,2.73
2022-08-22T02:05:13.097Z,1.60
2022-08-22T02:07:50.015Z,2.73
2022-08-22T02:10:23.767Z,2.87
2022-08-22T02:13:03.805Z,2.27
2022-08-22T02:15:45.075Z,2.43
2022-08-22T02:18:21.831Z,2.20
2022-08-22T02:21:01.647Z,2.07
2022-08-22T02:23:37.393Z,2.20
2022-08-22T02:26:10.643Z,2.30
2022-08-22T02:28:57.325Z,2.33
2022-08-22T02:31:37.046Z,2.13
2022-08-22T02:34:21.319Z,2.50
2022-08-22T02:36:55.019Z,2.70
2022-08-22T02:39:36.801Z,3.17
2022-08-22T02:42:17.155Z,2.73
2022-08-22T02:44:59.105Z,3.30
2022-08-22T02:47:32.893Z,2.97
2022-08-22T02:50:12.706Z,2.93
2022-08-22T02:52:55.135Z,3.57
2022-08-22T02:55:35.330Z,3.37
2022-08-22T02:58:09.926Z,3.00
2022-08-22T03:00:47.300Z,2.43
2022-08-22T03:03:23.123Z,2.63
2022-08-22T03:06:01.359Z,3.33
2022-08-22T03:08:33.115Z,2.73
2022-08-22T03:11:19.039Z,2.33
2022-08-22T03:13:55.513Z,3.40
2022-08-22T03:16:29.749Z,2.07
2022-08-22T03:19:04.006Z,3.00
2022-08-22T03:21:36.906Z,3.00
2022-08-22T03:24:13.126Z,2.43
2022-08-22T03:26:50.353Z,2.23
2022-08-22T03:29:23.202Z,2.27
2022-08-22T03:32:07.831Z,2.73
2022-08-22T03:34:37.441Z,2.47
2022-08-22T03:37:14.096Z,2.80
2022-08-22T03:39:53.083Z,2.63
2022-08-22T03:43:08.435Z,3.20
2022-08-22T03:46:18.600Z,3.27
2022-08-22T03:49:09.241Z,2.43
2022-08-22T03:52:04.111Z,2.73
2022-08-22T03:54:52.585Z,3.47
2022-08-22T03:57:49.520Z,2.23
2022-08-22T04:00:47.128Z,3.50
2022-08-22T04:03:54.594Z,3.47
2022-08-22T04:06:56.449Z,2.60
2022-08-22T04:09:52.029Z,3.37
2022-08-22T04:12:46.239Z,2.60
2022-08-22T04:15:41.659Z,2.40
2022-08-22T04:18:33.376Z,2.77
2022-08-22T04:21:23.495Z,1.90
2022-08-22T04:24:24.581Z,2.27
2022-08-22T04:26:56.802Z,2.63
2022-08-22T04:29:39.075Z,2.63
2022-08-22T04:32:15.005Z,2.73
2022-08-22T04:34:48.855Z,2.57
2022-08-22T04:37:21.737Z,2.73
2022-08-22T04:39:56.386Z,2.73
2022-08-22T04:42:33.133Z,2.40
2022-08-22T04:45:06.942Z,2.47
2022-08-22T04:47:40.044Z,3.17
2022-08-22T04:50:17.549Z,3.67
2022-08-22T04:53:02.330Z,2.57
2022-08-22T04:55:36.696Z,2.03
2022-08-22T04:58:14.976Z,3.27
2022-08-22T05:00:50.222Z,2.17
2022-08-22T05:03:22.387Z,2.30
2022-08-22T05:05:53.522Z,2.27
2022-08-22T05:08:26.842Z,2.10
2022-08-22T05:10:55.702Z,1.60
2022-08-22T05:13:29.061Z,2.90
2022-08-22T05:16:03.415Z,2.27
2022-08-22T05:18:40.021Z,1.90
2022-08-22T05:21:13.956Z,3.70
2022-08-22T05:23:45.879Z,2.77
2022-08-22T05:26:16.143Z,2.27
2022-08-22T05:28:52.534Z,2.70
2022-08-22T05:31:27.315Z,2.40
2022-08-22T05:34:02.364Z,1.90
2022-08-22T05:36:33.461Z,2.20
2022-08-22T05:39:05.826Z,2.80
2022-08-22T05:41:40.557Z,3.63
2022-08-22T05:44:17.988Z,3.17
2022-08-22T05:46:52.581Z,2.30
2022-08-22T05:49:27.059Z,3.63
2022-08-22T05:52:07.450Z,2.10
2022-08-22T05:54:54.560Z,3.30
2022-08-22T05:57:29.318Z,2.13
2022-08-22T06:00:04.525Z,2.90
2022-08-22T06:02:52.516Z,3.10
2022-08-22T06:05:25.856Z,3.13
2022-08-22T06:08:00.594Z,3.63
2022-08-22T06:10:33.428Z,3.50
2022-08-22T06:13:04.835Z,3.40
2022-08-22T06:15:46.259Z,3.33
2022-08-22T06:18:21.370Z,3.00
2022-08-22T06:20:55.046Z,3.10
2022-08-22T06:23:27.639Z,2.53
2022-08-22T06:26:00.792Z,3.50
2022-08-22T06:28:34.952Z,3.47
2022-08-22T06:31:04.454Z,3.73
2022-08-22T06:33:38.275Z,2.47
2022-08-22T06:36:31.775Z,3.00
2022-08-22T06:39:16.690Z,3.20
2022-08-22T06:41:50.421Z,2.80
2022-08-22T06:44:23.452Z,2.83
2022-08-22T06:46:55.518Z,3.43
2022-08-22T06:49:25.709Z,2.03
2022-08-22T06:51:58.521Z,2.27
2022-08-22T06:54:34.290Z,2.77
2022-08-22T06:57:04.688Z,2.93
2022-08-22T06:59:38.115Z,3.20
2022-08-22T07:02:17.888Z,3.30
2022-08-22T07:04:48.961Z,4.30
2022-08-22T07:07:19.484Z,4.20
2022-08-22T07:09:55.271Z,2.33
2022-08-22T07:12:28.169Z,4.33
2022-08-22T07:15:00.659Z,3.90
2022-08-22T07:17:30.851Z,3.83
2022-08-22T07:20:03.719Z,3.03
2022-08-22T07:22:36.508Z,3.60
2022-08-22T07:25:09.097Z,4.97
2022-08-22T07:27:48.960Z,5.60
2022-08-22T07:30:27.496Z,3.17
2022-08-22T07:33:24.903Z,5.10
2022-08-22T07:35:53.912Z,4.37
2022-08-22T07:38:32.550Z,3.33
2022-08-22T07:41:07.569Z,4.30
2022-08-22T07:43:41.421Z,4.23
2022-08-22T07:46:22.891Z,3.50
2022-08-22T07:49:08.553Z,4.40
2022-08-22T07:51:43.091Z,3.60
2022-08-22T07:54:15.528Z,5.00
2022-08-22T07:56:46.444Z,5.13
2022-08-22T07:59:17.151Z,4.73
2022-08-22T08:01:48.293Z,4.73
2022-08-22T08:04:21.746Z,4.70
2022-08-22T08:06:53.651Z,5.07
2022-08-22T08:09:23.127Z,5.00
2022-08-22T08:11:54.535Z,6.87
2022-08-22T08:14:24.487Z,5.43
2022-08-22T08:16:57.302Z,5.70
2022-08-22T08:19:25.785Z,5.83
2022-08-22T08:21:57.041Z,5.93
2022-08-22T08:24:36.161Z,5.07
2022-08-22T08:27:33.202Z,5.80
2022-08-22T08:30:06.196Z,5.53
2022-08-22T08:32:38.771Z,4.73
2022-08-22T08:35:09.727Z,5.33
2022-08-22T08:37:45.525Z,4.57
2022-08-22T08:40:42.179Z,4.17
2022-08-22T08:43:29.352Z,4.33
2022-08-22T08:46:25.666Z,4.00
2022-08-22T08:49:24.023Z,3.57
2022-08-22T08:52:17.100Z,3.30
2022-08-22T08:55:00.367Z,2.97
2022-08-22T08:57:47.858Z,2.77
2022-08-22T09:00:21.454Z,2.95
2022-08-22T09:03:07.185Z,2.25
2022-08-22T09:05:52.447Z,4.57
2022-08-22T09:08:55.682Z,2.40
2022-08-22T09:11:46.687Z,3.30
2022-08-22T09:14:39.340Z,3.22
2022-08-22T09:17:58.150Z,1.67
2022-08-22T09:20:50.201Z,2.40
2022-08-22T09:23:48.616Z,3.50
2022-08-22T09:26:29.771Z,2.70
2022-08-22T09:29:04.590Z,1.58
2022-08-22T09:31:47.545Z,2.13
2022-08-22T09:34:23.885Z,1.98
2022-08-22T09:37:14.226Z,3.95
2022-08-22T09:39:52.403Z,2.20
2022-08-22T09:42:26.508Z,2.10
2022-08-22T09:45:20.357Z,1.95
2022-08-22T09:48:02.269Z,1.73
2022-08-22T09:50:47.550Z,2.10
2022-08-22T09:53:38.048Z,1.48
2022-08-22T09:56:14.995Z,1.98
2022-08-22T09:58:53.249Z,1.88
2022-08-22T10:01:32.835Z,1.77
2022-08-22T10:04:38.136Z,1.50
2022-08-22T10:07:41.591Z,1.55
2022-08-22T10:10:28.218Z,2.58
2022-08-22T10:13:04.655Z,1.55
2022-08-22T10:15:42.479Z,1.55
2022-08-22T10:18:23.511Z,2.30
2022-08-22T10:21:07.478Z,1.85
2022-08-22T10:23:43.288Z,1.95
2022-08-22T10:26:25.972Z,1.30
2022-08-22T10:28:57.624Z,1.50
2022-08-22T10:31:42.859Z,1.73
2022-08-22T10:34:31.191Z,2.38
2022-08-22T10:37:10.926Z,1.60
2022-08-22T10:39:45.707Z,1.80
2022-08-22T10:42:25.158Z,2.08
2022-08-22T10:45:24.066Z,1.95
2022-08-22T10:48:32.470Z,2.50
2022-08-22T10:51:17.963Z,2.63
2022-08-22T10:53:58.489Z,2.35
2022-08-22T10:56:33.994Z,1.42
2022-08-22T10:59:11.683Z,1.88
2022-08-22T11:01:52.484Z,1.27
2022-08-22T11:04:40.302Z,2.10
2022-08-22T11:07:21.891Z,1.77
2022-08-22T11:09:56.987Z,1.33
2022-08-22T11:12:34.909Z,1.38
2022-08-22T11:15:13.455Z,2.00
2022-08-22T11:18:15.255Z,1.40
2022-08-22T11:20:56.241Z,1.52
2022-08-22T11:23:37.550Z,1.48
2022-08-22T11:26:15.038Z,2.42
2022-08-22T11:29:16.417Z,1.60
2022-08-22T11:31:52.400Z,1.98
2022-08-22T11:34:37.987Z,1.75
2022-08-22T11:37:11.608Z,1.75
2022-08-22T11:39:46.135Z,2.25
2022-08-22T11:42:29.629Z,1.42
2022-08-22T11:45:01.855Z,2.17
2022-08-22T11:47:32.345Z,2.08
2022-08-22T11:50:13.300Z,2.13
2022-08-22T11:52:56.549Z,2.08
2022-08-22T11:55:33.011Z,2.00
2022-08-22T11:58:18.069Z,2.28
2022-08-22T12:00:56.695Z,1.50
2022-08-22T12:03:42.134Z,1.85
2022-08-22T12:06:30.023Z,2.42
2022-08-22T12:09:18.000Z,2.40
2022-08-22T12:11:59.758Z,1.98
2022-08-22T12:14:34.521Z,1.77
2022-08-22T12:17:28.493Z,1.95
2022-08-22T12:20:19.874Z,2.20
2022-08-22T12:23:06.425Z,2.40
2022-08-22T12:25:53.007Z,1.40
2022-08-22T12:28:32.392Z,2.00
2022-08-22T12:31:12.344Z,1.65
2022-08-22T12:34:10.551Z,1.92
2022-08-22T12:37:08.850Z,1.85
2022-08-22T12:39:52.224Z,1.80
2022-08-22T12:42:36.378Z,1.70
2022-08-22T12:45:21.509Z,1.50
2022-08-22T12:48:03.996Z,1.65
2022-08-22T12:50:43.679Z,11.80
2022-08-22T12:53:34.786Z,2.38
2022-08-22T12:56:10.298Z,2.20
2022-08-22T12:59:00.793Z,1.58
2022-08-22T13:01:35.545Z,1.60
2022-08-22T13:04:06.130Z,1.60
2022-08-22T13:06:54.320Z,3.17
2022-08-22T13:09:30.698Z,2.22
2022-08-22T13:12:05.495Z,1.25
2022-08-22T13:14:35.682Z,1.85
2022-08-22T13:17:10.266Z,2.00
2022-08-22T13:20:00.899Z,1.30
2022-08-22T13:22:34.872Z,1.77
2022-08-22T13:25:08.646Z,1.42
2022-08-22T13:27:51.146Z,1.05
2022-08-22T13:30:21.674Z,1.63
2022-08-22T13:32:52.651Z,1.33
2022-08-22T13:35:24.855Z,1.67
2022-08-22T13:38:03.744Z,2.05
2022-08-22T13:40:34.132Z,1.23
2022-08-22T13:43:06.198Z,1.65
2022-08-22T13:45:36.490Z,1.45
2022-08-22T13:48:11.578Z,1.27
2022-08-22T13:51:00.782Z,1.15
2022-08-22T13:53:39.526Z,1.67
2022-08-22T13:56:15.515Z,2.70
2022-08-22T13:58:47.001Z,1.23
2022-08-22T14:01:28.794Z,0.82
2022-08-22T14:04:01.065Z,1.67
2022-08-22T14:06:43.906Z,1.27
2022-08-22T14:09:29.392Z,1.60
2022-08-22T14:12:12.654Z,1.58
2022-08-22T14:14:45.870Z,1.05
2022-08-22T14:17:16.645Z,1.13
2022-08-22T14:19:58.550Z,2.42
2022-08-22T14:22:35.026Z,1.20
2022-08-22T14:25:08.824Z,1.13
2022-08-22T14:27:40.669Z,1.10
2022-08-22T14:30:16.983Z,1.77
2022-08-22T14:32:52.343Z,2.00
2022-08-22T14:35:34.745Z,1.02
2022-08-22T14:38:27.472Z,1.27
2022-08-22T14:41:03.517Z,1.33
2022-08-22T14:43:49.370Z,1.58
2022-08-22T14:46:24.031Z,0.90
2022-08-22T14:49:31.560Z,0.93
2022-08-22T14:52:10.477Z,0.57
2022-08-22T14:54:47.574Z,0.70
2022-08-22T14:57:20.600Z,0.90
2022-08-22T14:59:51.183Z,1.77
2022-08-22T15:02:27.661Z,1.42
2022-08-22T15:04:56.975Z,1.52
2022-08-22T15:07:28.003Z,1.40
2022-08-22T15:10:01.069Z,0.75
2022-08-22T15:12:35.118Z,1.45
2022-08-22T15:15:07.042Z,1.15
2022-08-22T15:17:44.009Z,0.90
2022-08-22T15:20:27.725Z,0.70
2022-08-22T15:22:58.015Z,0.80
2022-08-22T15:25:30.118Z,1.00
2022-08-22T15:28:06.460Z,1.58
2022-08-22T15:30:44.257Z,0.80
2022-08-22T15:33:17.301Z,0.68
2022-08-22T15:35:48.162Z,0.77
2022-08-22T15:38:28.612Z,1.08
2022-08-22T15:41:04.101Z,0.90
2022-08-22T15:43:37.122Z,1.02
2022-08-22T15:46:19.335Z,0.98
2022-08-22T15:48:58.005Z,1.33
2022-08-22T15:51:36.954Z,1.70
2022-08-22T15:54:25.011Z,1.30
2022-08-22T15:57:15.892Z,0.85
2022-08-22T15:59:55.615Z,0.90
2022-08-22T16:02:33.261Z,0.70
2022-08-22T16:05:21.876Z,0.85
2022-08-22T16:07:52.714Z,0.60
2022-08-22T16:10:33.201Z,0.90
2022-08-22T16:13:14.649Z,1.05
2022-08-22T16:15:58.557Z,0.60
2022-08-22T16:19:04.041Z,0.65
2022-08-22T16:22:17.370Z,0.80
2022-08-22T16:25:10.695Z,1.15
2022-08-22T16:27:54.406Z,1.15
2022-08-22T16:30:35.512Z,1.13
2022-08-22T16:33:07.035Z,1.88
2022-08-22T16:36:23.970Z,1.42
2022-08-22T16:38:54.902Z,0.90
2022-08-22T16:41:32.998Z,0.80
2022-08-22T16:44:41.548Z,1.73
2022-08-22T16:47:13.797Z,0.93
2022-08-22T16:50:00.327Z,1.38
2022-08-22T16:53:01.603Z,1.23
2022-08-22T16:55:47.287Z,1.08
2022-08-22T16:58:56.161Z,0.88
2022-08-22T17:01:38.996Z,0.90
2022-08-22T17:04:15.794Z,0.80
2022-08-22T17:07:06.403Z,1.33
2022-08-22T17:09:57.106Z,1.05
2022-08-22T17:12:39.819Z,1.38
2022-08-22T17:15:17.758Z,2.13
2022-08-22T17:18:10.681Z,1.05
2022-08-22T17:20:47.619Z,2.05
2022-08-22T17:23:30.776Z,0.70
2022-08-22T17:26:07.415Z,1.08
2022-08-22T17:28:40.747Z,1.80
2022-08-22T17:31:16.338Z,1.27
2022-08-22T17:34:20.355Z,0.77
2022-08-22T17:36:58.895Z,1.08
2022-08-22T17:39:47.144Z,0.98
2022-08-22T17:42:30.022Z,1.00
2022-08-22T17:45:08.615Z,0.75
2022-08-22T17:47:47.228Z,0.93
2022-08-22T17:50:22.770Z,1.00
2022-08-22T17:52:56.436Z,1.80
2022-08-22T17:55:31.456Z,1.00
2022-08-22T17:58:05.215Z,0.87
2022-08-22T18:00:36.850Z,2.40
2022-08-22T18:03:09.937Z,0.90
2022-08-22T18:05:46.945Z,1.00
2022-08-22T18:11:21.044Z,1.27
2022-08-22T18:13:56.299Z,1.47
2022-08-22T18:16:29.468Z,0.60
2022-08-22T18:19:04.639Z,1.07
2022-08-22T18:21:36.334Z,0.93
2022-08-22T18:24:18.503Z,0.87
2022-08-22T18:26:59.080Z,1.33
2022-08-22T18:29:32.538Z,0.80
2022-08-22T18:32:11.159Z,1.57
2022-08-22T18:34:44.372Z,0.93
2022-08-22T18:37:21.139Z,1.03
2022-08-22T18:39:56.753Z,0.60
2022-08-22T18:42:31.259Z,0.60
2022-08-22T18:44:59.224Z,0.50
2022-08-22T18:47:32.564Z,0.90
2022-08-22T18:50:03.942Z,1.17
2022-08-22T18:52:38.486Z,1.10
2022-08-22T18:55:23.389Z,1.17
2022-08-22T18:58:16.796Z,0.80
2022-08-22T19:00:55.584Z,0.60
2022-08-22T19:03:38.396Z,0.70
2022-08-22T19:06:28.890Z,0.73
2022-08-22T19:09:35.387Z,0.60
2022-08-22T19:12:15.300Z,0.60
2022-08-22T19:15:06.183Z,0.70
2022-08-22T19:17:55.804Z,1.13
2022-08-22T19:20:48.398Z,0.63
2022-08-22T19:23:47.966Z,1.10
2022-08-22T19:26:34.933Z,0.77
2022-08-22T19:29:10.815Z,0.50
2022-08-22T19:31:51.886Z,0.90
2022-08-22T19:34:36.171Z,0.80
2022-08-22T19:37:33.667Z,0.63
2022-08-22T19:40:05.371Z,0.60
2022-08-22T19:42:37.331Z,0.70
2022-08-22T19:45:17.603Z,0.70
2022-08-22T19:47:56.300Z,1.23
2022-08-22T19:50:32.759Z,0.60
2022-08-22T19:53:13.141Z,0.97
2022-08-22T19:55:59.436Z,0.80
2022-08-22T19:58:36.329Z,0.40
2022-08-22T20:01:22.882Z,0.70
2022-08-22T20:03:56.784Z,0.60
2022-08-22T20:06:43.946Z,0.60
2022-08-22T20:09:34.394Z,0.60
2022-08-22T20:12:16.049Z,0.50
2022-08-22T20:14:46.431Z,0.67
2022-08-22T20:17:35.197Z,0.70
2022-08-22T20:20:30.428Z,0.90
2022-08-22T20:23:02.199Z,2.10
2022-08-22T20:25:42.879Z,1.73
2022-08-22T20:28:33.996Z,0.87
2022-08-22T20:31:04.514Z,0.97
2022-08-22T20:33:39.571Z,0.60
2022-08-22T20:36:27.360Z,0.80
2022-08-22T20:38:59.567Z,1.73
2022-08-22T20:41:32.785Z,1.00
2022-08-22T20:44:06.840Z,1.03
2022-08-22T20:46:47.980Z,0.90
2022-08-22T20:49:24.424Z,1.00
2022-08-22T20:51:56.481Z,0.60
2022-08-22T20:54:25.805Z,0.97
2022-08-22T20:56:56.479Z,1.10
2022-08-22T20:59:30.810Z,0.80
2022-08-22T21:02:07.315Z,0.53
2022-08-22T21:04:43.743Z,0.87
2022-08-22T21:07:13.174Z,0.50
2022-08-22T21:09:58.394Z,1.40
2022-08-22T21:12:26.402Z,1.00
2022-08-22T21:14:54.130Z,0.80
2022-08-22T21:17:29.075Z,0.70
2022-08-22T21:20:17.986Z,1.03
2022-08-22T21:22:47.333Z,1.30
2022-08-22T21:25:15.792Z,1.00
2022-08-22T21:27:47.602Z,0.90
2022-08-22T21:30:23.009Z,1.20
2022-08-22T21:32:55.647Z,1.53
2022-08-22T21:35:28.621Z,1.30
2022-08-22T21:37:59.018Z,1.30
2022-08-22T21:40:33.347Z,1.17
2022-08-22T21:43:07.363Z,2.00
2022-08-22T21:45:41.539Z,1.83
2022-08-22T21:48:37.908Z,1.50
2022-08-22T21:51:27.947Z,0.70
2022-08-22T21:54:28.922Z,1.13
2022-08-22T21:57:00.624Z,0.97
2022-08-22T21:59:51.387Z,1.17
2022-08-22T22:02:36.377Z,1.43
2022-08-22T22:05:08.458Z,1.33
2022-08-22T22:07:37.325Z,2.37
2022-08-22T22:10:07.175Z,1.30
2022-08-22T22:12:36.303Z,1.47
2022-08-22T22:15:04.394Z,1.50
2022-08-22T22:17:32.573Z,1.77
2022-08-22T22:20:00.207Z,1.53
2022-08-22T22:22:28.207Z,1.33
2022-08-22T22:24:55.841Z,2.20
2022-08-22T22:27:23.934Z,1.40
2022-08-22T22:29:52.917Z,1.37
2022-08-22T22:32:20.543Z,1.00
2022-08-22T22:34:48.170Z,1.17
2022-08-22T22:37:15.934Z,1.87
2022-08-22T22:39:43.716Z,1.13
2022-08-22T22:42:11.532Z,1.40
2022-08-22T22:44:39.147Z,1.30
2022-08-22T22:47:13.231Z,1.73
2022-08-22T22:49:40.836Z,1.00
2022-08-22T22:52:08.819Z,1.77
2022-08-22T22:54:39.381Z,2.93
2022-08-22T22:57:12.391Z,2.17
2022-08-22T22:59:41.034Z,1.83
2022-08-22T23:02:11.966Z,2.60
2022-08-22T23:04:44.484Z,1.43
2022-08-22T23:07:14.431Z,1.87
2022-08-22T23:09:44.739Z,1.73
2022-08-22T23:12:14.357Z,1.30
2022-08-22T23:14:42.127Z,1.37
2022-08-22T23:17:10.147Z,1.43
2022-08-22T23:19:38.810Z,1.47
2022-08-22T23:22:09.556Z,1.33
2022-08-22T23:24:38.774Z,0.83
2022-08-22T23:27:07.643Z,1.10
2022-08-22T23:29:35.551Z,1.30
2022-08-22T23:32:05.119Z,1.80
2022-08-22T23:34:35.116Z,1.40
2022-08-22T23:37:06.530Z,1.10
2022-08-22T23:39:38.083Z,1.03
2022-08-22T23:42:08.321Z,1.70
2022-08-22T23:44:37.915Z,1.90
2022-08-22T23:47:07.806Z,1.90
2022-08-22T23:49:36.735Z,1.30
2022-08-22T23:52:06.194Z,0.80
2022-08-22T23:54:35.855Z,1.40
2022-08-22T23:57:11.958Z,0.97
2022-08-22T23:59:46.309Z,1.17
